createdAt,value
2022-12-22T00:01:54.886Z,100035.16
2022-12-22T00:04:41.541Z,100022.88
2022-12-22T00:07:27.704Z,100026.84
2022-12-22T00:10:13.409Z,100022.72
2022-12-22T00:12:59.348Z,100034.25
2022-12-22T00:15:45.537Z,100029.91
2022-12-22T00:18:33.437Z,100031.63
2022-12-22T00:21:19.308Z,100033.41
2022-12-22T00:24:05.032Z,100038.00
2022-12-22T00:26:52.253Z,100031.47
2022-12-22T00:29:38.190Z,100046.13
2022-12-22T00:32:24.832Z,100025.53
2022-12-22T00:35:10.920Z,100032.38
2022-12-22T00:37:56.836Z,100037.38
2022-12-22T00:40:47.366Z,100034.59
2022-12-22T00:43:33.766Z,100031.03
2022-12-22T00:46:21.660Z,100033.34
2022-12-22T00:49:08.133Z,100038.47
2022-12-22T00:51:54.103Z,100025.56
2022-12-22T00:54:40.981Z,100020.47
2022-12-22T00:57:35.344Z,100031.28
2022-12-22T01:00:22.819Z,100021.63
2022-12-22T01:03:08.782Z,100025.28
2022-12-22T01:05:54.878Z,100026.19
2022-12-22T01:08:40.699Z,100035.03
2022-12-22T01:11:26.880Z,100031.47
2022-12-22T01:14:12.656Z,100034.69
2022-12-22T01:16:58.576Z,100030.13
2022-12-22T01:19:44.643Z,100026.38
2022-12-22T01:22:32.013Z,100020.66
2022-12-22T01:25:18.037Z,100013.84
2022-12-22T01:28:03.933Z,100007.50
2022-12-22T01:30:50.066Z,100014.56
2022-12-22T01:33:35.937Z,100011.06
2022-12-22T01:36:21.974Z,100016.44
2022-12-22T01:39:07.883Z,100015.66
2022-12-22T01:41:54.381Z,100016.69
2022-12-22T01:44:40.209Z,100018.69
2022-12-22T01:47:50.600Z,100012.59
2022-12-22T01:50:38.198Z,100017.84
2022-12-22T01:53:26.743Z,100018.34
2022-12-22T01:56:13.190Z,100017.53
2022-12-22T01:59:02.138Z,100026.50
2022-12-22T02:01:49.179Z,100015.31
2022-12-22T02:04:36.639Z,100018.41
2022-12-22T02:07:46.571Z,100018.06
2022-12-22T02:11:04.088Z,100018.66
2022-12-22T02:14:12.542Z,100022.78
2022-12-22T02:17:20.504Z,100026.47
2022-12-22T02:20:21.644Z,100029.00
2022-12-22T02:23:22.868Z,100038.25
2022-12-22T02:26:36.540Z,100041.84
2022-12-22T02:29:23.984Z,100042.47
2022-12-22T02:32:09.953Z,100045.88
2022-12-22T02:34:55.706Z,100046.75
2022-12-22T02:37:49.345Z,100052.91
2022-12-22T02:40:44.011Z,100041.47
2022-12-22T02:43:36.006Z,100048.00
2022-12-22T02:46:44.132Z,100027.84
2022-12-22T02:49:51.249Z,100032.78
2022-12-22T02:52:41.611Z,100027.00
2022-12-22T02:55:27.518Z,100030.81
2022-12-22T02:58:13.547Z,100020.91
2022-12-22T03:00:59.355Z,100032.19
2022-12-22T03:03:45.650Z,100044.88
2022-12-22T03:06:31.748Z,100041.31
2022-12-22T03:09:17.651Z,100044.50
2022-12-22T03:12:03.587Z,100042.50
2022-12-22T03:14:49.522Z,100041.97
2022-12-22T03:17:35.378Z,100059.09
2022-12-22T03:20:21.431Z,100053.66
2022-12-22T03:23:07.538Z,100063.31
2022-12-22T03:25:54.340Z,100066.78
2022-12-22T03:28:26.620Z,100081.28
2022-12-22T03:31:01.404Z,100082.28
2022-12-22T03:33:29.670Z,100094.78
2022-12-22T03:35:57.099Z,100088.56
2022-12-22T03:38:24.499Z,100093.72
2022-12-22T03:40:51.762Z,100093.53
2022-12-22T03:43:38.280Z,100098.91
2022-12-22T03:46:29.020Z,100106.44
2022-12-22T03:49:12.749Z,100107.50
2022-12-22T03:51:48.842Z,100118.00
2022-12-22T03:54:23.548Z,100113.88
2022-12-22T03:56:51.636Z,100115.47
2022-12-22T03:59:19.334Z,100119.56
2022-12-22T04:01:49.563Z,100119.66
2022-12-22T04:04:18.528Z,100118.50
2022-12-22T04:06:46.650Z,100128.56
2022-12-22T04:09:14.304Z,100132.31
2022-12-22T04:12:00.546Z,100118.28
2022-12-22T04:14:33.546Z,100124.28
2022-12-22T04:17:05.570Z,100140.91
2022-12-22T04:19:33.177Z,100148.19
2022-12-22T04:22:00.771Z,100132.19
2022-12-22T04:24:28.060Z,100127.00
2022-12-22T04:26:55.329Z,100141.75
2022-12-22T04:29:22.597Z,100187.09
2022-12-22T04:31:49.883Z,100190.16
2022-12-22T04:34:17.097Z,100204.44
2022-12-22T04:36:44.423Z,100194.84
2022-12-22T04:39:11.667Z,100197.84
2022-12-22T04:41:39.019Z,100213.91
2022-12-22T04:44:06.590Z,100222.00
2022-12-22T04:46:33.898Z,100218.41
2022-12-22T04:49:01.293Z,100238.59
2022-12-22T04:51:28.835Z,100240.31
2022-12-22T04:53:56.305Z,100255.88
2022-12-22T04:56:23.706Z,100261.53
2022-12-22T04:58:51.012Z,100265.44
2022-12-22T05:01:18.927Z,100262.34
2022-12-22T05:03:47.045Z,100267.72
2022-12-22T05:06:14.921Z,100289.97
2022-12-22T05:08:42.470Z,100289.53
2022-12-22T05:11:09.852Z,100292.56
2022-12-22T05:13:37.213Z,100302.28
2022-12-22T05:16:09.905Z,100308.06
2022-12-22T05:18:38.121Z,100308.44
2022-12-22T05:21:11.900Z,100313.13
2022-12-22T05:23:39.323Z,100313.91
2022-12-22T05:26:06.801Z,100318.38
2022-12-22T05:28:34.186Z,100319.34
2022-12-22T05:31:06.764Z,100318.63
2022-12-22T05:33:34.833Z,100337.81
2022-12-22T05:36:02.469Z,100330.91
2022-12-22T05:38:29.778Z,100332.72
2022-12-22T05:41:03.488Z,100327.41
2022-12-22T05:43:33.066Z,100339.56
2022-12-22T05:46:08.674Z,100350.38
2022-12-22T05:48:38.971Z,100353.69
2022-12-22T05:51:08.314Z,100360.19
2022-12-22T05:53:36.586Z,100368.22
2022-12-22T05:56:04.175Z,100372.81
2022-12-22T05:58:31.418Z,100373.03
2022-12-22T06:00:59.645Z,100372.63
2022-12-22T06:03:27.972Z,100372.03
2022-12-22T06:05:55.704Z,100381.78
2022-12-22T06:08:23.574Z,100387.59
2022-12-22T06:10:51.241Z,100394.47
2022-12-22T06:13:18.519Z,100396.34
2022-12-22T06:15:45.824Z,100395.81
2022-12-22T06:18:13.576Z,100408.28
2022-12-22T06:20:40.922Z,100402.56
2022-12-22T06:23:08.360Z,100412.00
2022-12-22T06:25:36.078Z,100410.97
2022-12-22T06:28:03.779Z,100413.84
2022-12-22T06:30:33.574Z,100416.47
2022-12-22T06:33:01.592Z,100418.56
2022-12-22T06:35:29.018Z,100428.53
2022-12-22T06:37:56.565Z,100425.22
2022-12-22T06:40:23.770Z,100434.72
2022-12-22T06:43:10.271Z,100449.19
2022-12-22T06:45:42.840Z,100454.03
2022-12-22T06:48:11.425Z,100452.13
2022-12-22T06:50:38.868Z,100460.78
2022-12-22T06:53:07.000Z,100457.47
2022-12-22T06:55:34.577Z,100460.84
2022-12-22T06:58:02.571Z,100455.53
2022-12-22T07:00:29.875Z,100464.97
2022-12-22T07:02:57.388Z,100459.59
2022-12-22T07:05:25.053Z,100471.75
2022-12-22T07:07:52.944Z,100471.63
2022-12-22T07:10:40.244Z,100473.09
2022-12-22T07:13:19.367Z,100485.06
2022-12-22T07:15:53.789Z,100481.22
2022-12-22T07:18:27.501Z,100486.91
2022-12-22T07:20:54.942Z,100490.44
2022-12-22T07:23:22.291Z,100482.91
2022-12-22T07:25:49.564Z,100478.25
2022-12-22T07:28:20.662Z,100481.16
2022-12-22T07:30:52.494Z,100484.34
2022-12-22T07:33:19.923Z,100482.47
2022-12-22T07:35:47.288Z,100487.94
2022-12-22T07:38:14.688Z,100488.34
2022-12-22T07:40:43.132Z,100498.69
2022-12-22T07:43:11.565Z,100494.78
2022-12-22T07:45:39.422Z,100501.91
2022-12-22T07:48:26.751Z,100505.31
2022-12-22T07:50:55.597Z,100495.78
2022-12-22T07:53:22.841Z,100501.84
2022-12-22T07:55:50.166Z,100495.91
2022-12-22T07:58:17.418Z,100499.03
2022-12-22T08:00:44.696Z,100507.59
2022-12-22T08:03:12.108Z,100506.59
2022-12-22T08:05:39.497Z,100512.72
2022-12-22T08:08:07.798Z,100510.94
2022-12-22T08:10:35.003Z,100504.63
2022-12-22T08:13:02.410Z,100508.28
2022-12-22T08:15:29.701Z,100514.47
2022-12-22T08:17:57.082Z,100518.84
2022-12-22T08:20:24.406Z,100513.31
2022-12-22T08:22:51.943Z,100531.59
2022-12-22T08:25:19.211Z,100523.16
2022-12-22T08:27:51.729Z,100534.53
2022-12-22T08:30:19.057Z,100534.22
2022-12-22T08:32:49.069Z,100536.84
2022-12-22T08:35:16.711Z,100536.03
2022-12-22T08:37:45.666Z,100542.16
2022-12-22T08:40:18.645Z,100541.53
2022-12-22T08:42:47.099Z,100543.91
2022-12-22T08:45:14.593Z,100539.09
2022-12-22T08:47:42.775Z,100528.19
2022-12-22T08:50:10.634Z,100520.66
2022-12-22T08:52:38.328Z,100530.34
2022-12-22T08:55:06.611Z,100530.66
2022-12-22T08:57:34.006Z,100520.47
2022-12-22T09:00:01.686Z,100528.84
2022-12-22T09:02:29.094Z,100526.63
2022-12-22T09:04:56.562Z,100517.34
2022-12-22T09:07:23.882Z,100534.38
2022-12-22T09:09:51.665Z,100536.34
2022-12-22T09:12:19.007Z,100533.25
2022-12-22T09:14:46.341Z,100538.97
2022-12-22T09:17:13.572Z,100527.53
2022-12-22T09:19:40.850Z,100528.91
2022-12-22T09:22:09.886Z,100531.94
2022-12-22T09:24:37.253Z,100536.28
2022-12-22T09:27:06.638Z,100540.25
2022-12-22T09:29:33.904Z,100548.44
2022-12-22T09:32:01.188Z,100546.13
2022-12-22T09:34:28.441Z,100539.41
2022-12-22T09:36:55.769Z,100539.34
2022-12-22T09:39:28.531Z,100541.94
2022-12-22T09:41:57.844Z,100547.66
2022-12-22T09:44:38.035Z,100554.09
2022-12-22T09:47:10.219Z,100552.34
2022-12-22T09:49:37.534Z,100553.75
2022-12-22T09:52:05.177Z,100561.56
2022-12-22T09:54:32.467Z,100564.94
2022-12-22T09:57:00.135Z,100569.78
2022-12-22T09:59:28.483Z,100572.38
2022-12-22T10:02:11.205Z,100569.91
2022-12-22T10:04:41.538Z,100563.56
2022-12-22T10:07:29.012Z,100560.66
2022-12-22T10:09:56.391Z,100556.03
2022-12-22T10:12:26.017Z,100560.41
2022-12-22T10:14:54.983Z,100546.00
2022-12-22T10:17:33.393Z,100557.34
2022-12-22T10:20:19.197Z,100546.09
2022-12-22T10:22:48.806Z,100549.72
2022-12-22T10:25:52.470Z,100556.13
2022-12-22T10:28:24.434Z,100554.19
2022-12-22T10:31:10.921Z,100551.53
2022-12-22T10:33:45.896Z,100548.88
2022-12-22T10:36:19.629Z,100552.78
2022-12-22T10:39:13.196Z,100551.19
2022-12-22T10:41:42.984Z,100550.78
2022-12-22T10:44:21.392Z,100545.09
2022-12-22T10:46:48.602Z,100545.81
2022-12-22T10:49:24.453Z,100551.09
2022-12-22T10:52:14.357Z,100548.66
2022-12-22T10:54:44.676Z,100553.66
2022-12-22T10:57:15.002Z,100546.13
2022-12-22T11:00:02.229Z,100541.41
2022-12-22T11:02:38.213Z,100552.75
2022-12-22T11:05:11.854Z,100550.28
2022-12-22T11:07:41.561Z,100552.16
2022-12-22T11:10:18.645Z,100533.94
2022-12-22T11:13:02.467Z,100542.47
2022-12-22T11:15:34.239Z,100534.41
2022-12-22T11:18:01.466Z,100533.69
2022-12-22T11:20:45.934Z,100528.16
2022-12-22T11:23:25.458Z,100531.25
2022-12-22T11:26:11.277Z,100524.09
2022-12-22T11:28:50.624Z,100524.69
2022-12-22T11:31:23.718Z,100518.22
2022-12-22T11:33:51.056Z,100528.16
2022-12-22T11:36:28.068Z,100514.88
2022-12-22T11:39:01.601Z,100517.88
2022-12-22T11:41:46.992Z,100513.47
2022-12-22T11:44:42.295Z,100510.13
2022-12-22T11:47:25.466Z,100514.53
2022-12-22T11:49:55.948Z,100505.75
2022-12-22T11:52:48.427Z,100506.31
2022-12-22T11:55:34.758Z,100494.75
2022-12-22T11:58:21.791Z,100485.63
2022-12-22T12:01:14.955Z,100483.66
2022-12-22T12:04:06.065Z,100484.13
2022-12-22T12:06:45.941Z,100477.03
2022-12-22T12:09:28.258Z,100481.69
2022-12-22T12:12:05.054Z,100474.50
2022-12-22T12:14:34.891Z,100464.91
2022-12-22T12:17:28.555Z,100466.28
2022-12-22T12:20:20.282Z,100461.47
2022-12-22T12:22:47.576Z,100455.66
2022-12-22T12:25:46.201Z,100451.63
2022-12-22T12:28:38.199Z,100447.94
2022-12-22T12:31:06.964Z,100439.59
2022-12-22T12:33:37.627Z,100428.75
2022-12-22T12:36:47.847Z,100434.91
2022-12-22T12:39:24.142Z,100430.13
2022-12-22T12:41:51.343Z,100424.38
2022-12-22T12:44:22.204Z,100420.34
2022-12-22T12:46:55.293Z,100411.78
2022-12-22T12:49:34.763Z,100421.88
2022-12-22T12:52:08.550Z,100417.09
2022-12-22T12:54:40.614Z,100404.13
2022-12-22T12:57:07.968Z,100410.72
2022-12-22T12:59:41.201Z,100405.75
2022-12-22T13:02:26.986Z,100410.78
2022-12-22T13:05:06.762Z,100405.81
2022-12-22T13:08:16.558Z,100397.75
2022-12-22T13:11:31.147Z,100388.63
2022-12-22T13:14:03.639Z,100388.38
2022-12-22T13:16:33.693Z,100385.16
2022-12-22T13:19:03.051Z,100379.84
2022-12-22T13:21:54.937Z,100374.44
2022-12-22T13:27:14.632Z,100369.94
2022-12-22T13:29:45.130Z,100372.22
2022-12-22T13:30:51.198Z,100376.94
2022-12-22T13:32:33.394Z,100363.81
2022-12-22T13:35:32.005Z,100361.75
2022-12-22T13:38:00.977Z,100360.00
2022-12-22T13:40:31.412Z,100347.63
2022-12-22T13:43:11.763Z,100346.59
2022-12-22T13:45:40.228Z,100338.75
2022-12-22T13:48:13.948Z,100333.91
2022-12-22T13:51:01.495Z,100337.69
2022-12-22T13:54:07.969Z,100334.91
2022-12-22T13:56:46.292Z,100333.22
2022-12-22T13:59:35.389Z,100335.50
2022-12-22T14:02:08.476Z,100328.50
2022-12-22T14:04:37.305Z,100324.06
2022-12-22T14:07:14.624Z,100319.91
2022-12-22T14:09:50.361Z,100311.16
2022-12-22T14:12:24.354Z,100317.28
2022-12-22T14:14:53.428Z,100308.84
2022-12-22T14:17:23.517Z,100311.03
2022-12-22T14:19:52.574Z,100304.56
2022-12-22T14:22:24.538Z,100305.38
2022-12-22T14:24:57.535Z,100299.72
2022-12-22T14:27:39.447Z,100298.13
2022-12-22T14:30:19.146Z,100301.22
2022-12-22T14:32:54.468Z,100297.44
2022-12-22T14:35:22.793Z,100302.16
2022-12-22T14:37:52.922Z,100303.16
2022-12-22T14:40:30.443Z,100271.34
2022-12-22T14:42:59.106Z,100264.53
2022-12-22T14:45:26.903Z,100261.19
2022-12-22T14:47:55.450Z,100251.50
2022-12-22T14:50:27.901Z,100248.28
2022-12-22T14:52:57.442Z,100240.66
2022-12-22T14:55:36.580Z,100237.66
2022-12-22T14:58:03.784Z,100236.63
2022-12-22T15:00:42.618Z,100236.72
2022-12-22T15:03:25.395Z,100205.31
2022-12-22T15:05:52.992Z,100206.25
2022-12-22T15:08:42.715Z,100204.66
2022-12-22T15:11:12.405Z,100201.41
2022-12-22T15:13:39.874Z,100191.63
2022-12-22T15:16:10.099Z,100192.53
2022-12-22T15:18:37.488Z,100180.13
2022-12-22T15:21:05.197Z,100167.59
2022-12-22T15:23:32.626Z,100162.53
2022-12-22T15:25:59.888Z,100154.34
2022-12-22T15:28:27.259Z,100144.56
2022-12-22T15:30:54.740Z,100144.22
2022-12-22T15:33:22.071Z,100135.59
2022-12-22T15:35:49.540Z,100135.34
2022-12-22T15:38:19.502Z,100132.81
2022-12-22T15:40:47.468Z,100130.19
2022-12-22T15:43:55.171Z,100128.50
2022-12-22T15:46:04.556Z,100114.00
2022-12-22T15:48:34.207Z,100103.34
2022-12-22T15:51:03.814Z,100104.66
2022-12-22T15:53:32.574Z,100093.56
2022-12-22T15:56:00.006Z,100083.25
2022-12-22T15:58:32.497Z,100069.03
2022-12-22T16:01:00.101Z,100067.88
2022-12-22T16:03:27.607Z,100067.97
2022-12-22T16:05:55.083Z,100064.66
2022-12-22T16:08:31.669Z,100048.25
2022-12-22T16:10:59.125Z,100061.97
2022-12-22T16:13:27.401Z,100051.91
2022-12-22T16:15:57.964Z,100052.78
2022-12-22T16:18:25.806Z,100054.06
2022-12-22T16:20:53.314Z,100047.91
2022-12-22T16:23:23.473Z,100050.00
2022-12-22T16:25:55.502Z,100037.19
2022-12-22T16:28:26.321Z,100043.41
2022-12-22T16:30:53.892Z,100043.81
2022-12-22T16:33:21.156Z,100042.91
2022-12-22T16:35:48.809Z,100040.38
2022-12-22T16:38:19.097Z,100039.84
2022-12-22T16:40:49.800Z,100041.34
2022-12-22T16:46:03.516Z,100040.63
2022-12-22T16:48:34.722Z,100044.03
2022-12-22T16:51:02.142Z,100035.34
2022-12-22T16:53:29.427Z,100022.53
2022-12-22T16:55:58.685Z,100020.22
2022-12-22T16:58:25.961Z,100012.53
2022-12-22T17:00:53.373Z,100019.34
2022-12-22T17:03:25.964Z,100004.34
2022-12-22T17:05:55.781Z,100015.91
2022-12-22T17:08:34.943Z,100018.53
2022-12-22T17:11:10.533Z,100025.63
2022-12-22T17:13:39.030Z,100013.75
2022-12-22T17:16:06.643Z,100013.28
2022-12-22T17:18:35.353Z,100011.28
2022-12-22T17:21:04.215Z,100019.91
2022-12-22T17:23:47.445Z,100017.78
2022-12-22T17:26:17.180Z,100026.66
2022-12-22T17:28:44.910Z,100025.75
2022-12-22T17:31:17.599Z,100012.25
2022-12-22T17:33:45.315Z,100013.44
2022-12-22T17:36:20.385Z,100019.94
2022-12-22T17:38:47.726Z,100010.09
2022-12-22T17:41:17.070Z,100006.06
2022-12-22T17:43:45.231Z,100010.09
2022-12-22T17:46:15.146Z,100000.63
2022-12-22T17:48:43.360Z,100001.34
2022-12-22T17:51:28.538Z,100002.66
2022-12-22T17:53:57.669Z,100004.03
2022-12-22T17:56:26.173Z,100011.78
2022-12-22T17:58:53.850Z,100014.28
2022-12-22T18:01:32.241Z,100015.09
2022-12-22T18:04:00.043Z,100008.66
2022-12-22T18:06:33.773Z,100001.34
2022-12-22T18:09:01.538Z,99996.97
2022-12-22T18:11:28.917Z,100003.28
2022-12-22T18:13:57.412Z,100001.31
2022-12-22T18:16:25.195Z,99999.88
2022-12-22T18:18:52.525Z,100020.75
2022-12-22T18:21:22.933Z,100011.34
2022-12-22T18:23:51.211Z,100020.53
2022-12-22T18:26:21.776Z,100018.16
2022-12-22T18:28:49.591Z,100019.91
2022-12-22T18:31:17.418Z,100019.38
2022-12-22T18:33:44.726Z,100023.41
2022-12-22T18:36:20.909Z,100009.03
2022-12-22T18:38:51.149Z,100017.78
2022-12-22T18:41:22.864Z,100010.75
2022-12-22T18:43:50.483Z,100001.50
2022-12-22T18:46:18.748Z,100008.19
2022-12-22T18:48:47.578Z,100005.50
2022-12-22T18:51:25.889Z,100004.16
2022-12-22T18:53:54.915Z,100016.06
2022-12-22T18:56:22.691Z,100011.63
2022-12-22T18:58:50.099Z,100017.00
2022-12-22T19:01:26.034Z,100019.44
2022-12-22T19:03:55.792Z,100013.25
2022-12-22T19:06:23.964Z,100036.03
2022-12-22T19:08:51.820Z,100037.72
2022-12-22T19:11:23.153Z,100015.69
2022-12-22T19:13:52.036Z,100036.03
2022-12-22T19:16:24.502Z,100052.59
2022-12-22T19:18:52.005Z,100054.00
2022-12-22T19:21:19.672Z,100048.38
2022-12-22T19:23:47.215Z,100045.31
2022-12-22T19:26:23.356Z,100050.25
2022-12-22T19:28:53.137Z,100062.44
2022-12-22T19:31:25.597Z,100069.94
2022-12-22T19:33:53.278Z,100066.38
2022-12-22T19:36:25.613Z,100066.88
2022-12-22T19:39:02.742Z,100062.78
2022-12-22T19:41:44.100Z,100064.84
2022-12-22T19:44:17.371Z,100071.56
2022-12-22T19:46:45.069Z,100069.06
2022-12-22T19:49:17.472Z,100076.56
2022-12-22T19:51:46.328Z,100076.66
2022-12-22T19:54:13.881Z,100086.28
2022-12-22T19:56:42.662Z,100077.44
2022-12-22T19:59:29.658Z,100094.81
2022-12-22T20:02:00.178Z,100099.00
2022-12-22T20:04:28.343Z,100098.00
2022-12-22T20:06:55.755Z,100101.53
2022-12-22T20:09:22.977Z,100103.84
2022-12-22T20:11:50.245Z,100106.78
2022-12-22T20:14:18.398Z,100113.59
2022-12-22T20:16:46.014Z,100103.66
2022-12-22T20:19:14.242Z,100097.84
2022-12-22T20:21:42.339Z,100115.63
2022-12-22T20:24:18.875Z,100107.16
2022-12-22T20:26:50.286Z,100111.88
2022-12-22T20:29:21.087Z,100113.78
2022-12-22T20:31:48.581Z,100123.78
2022-12-22T20:34:15.951Z,100121.09
2022-12-22T20:36:43.546Z,100133.13
2022-12-22T20:39:16.358Z,100138.91
2022-12-22T20:41:50.482Z,100134.44
2022-12-22T20:44:20.046Z,100130.50
2022-12-22T20:46:47.706Z,100139.25
2022-12-22T20:49:15.958Z,100134.25
2022-12-22T20:51:43.245Z,100131.50
2022-12-22T20:54:14.028Z,100131.59
2022-12-22T20:56:43.332Z,100138.22
2022-12-22T20:59:17.947Z,100151.97
2022-12-22T21:01:46.272Z,100158.97
2022-12-22T21:04:14.976Z,100155.13
2022-12-22T21:06:49.718Z,100170.88
2022-12-22T21:09:17.755Z,100173.72
2022-12-22T21:11:45.317Z,100166.22
2022-12-22T21:14:13.317Z,100155.72
2022-12-22T21:16:41.300Z,100174.75
2022-12-22T21:19:09.925Z,100186.50
2022-12-22T21:21:37.385Z,100184.03
2022-12-22T21:24:05.569Z,100198.38
2022-12-22T21:26:36.190Z,100204.16
2022-12-22T21:29:06.698Z,100203.25
2022-12-22T21:31:33.955Z,100202.38
2022-12-22T21:34:01.233Z,100199.91
2022-12-22T21:36:31.573Z,100207.75
2022-12-22T21:39:01.770Z,100205.47
2022-12-22T21:41:47.471Z,100196.25
2022-12-22T21:44:14.801Z,100205.88
2022-12-22T21:46:43.761Z,100212.09
2022-12-22T21:49:21.192Z,100216.50
2022-12-22T21:51:49.767Z,100221.16
2022-12-22T21:54:18.851Z,100223.75
2022-12-22T21:56:46.641Z,100215.94
2022-12-22T21:59:14.147Z,100221.72
2022-12-22T22:01:41.757Z,100226.88
2022-12-22T22:04:09.492Z,100237.41
2022-12-22T22:06:37.049Z,100241.22
2022-12-22T22:09:05.775Z,100227.81
2022-12-22T22:11:33.360Z,100230.53
2022-12-22T22:14:00.762Z,100236.16
2022-12-22T22:16:28.146Z,100238.28
2022-12-22T22:18:55.464Z,100246.28
2022-12-22T22:21:22.688Z,100240.03
2022-12-22T22:23:50.228Z,100237.50
2022-12-22T22:26:17.621Z,100244.22
2022-12-22T22:28:44.907Z,100248.34
2022-12-22T22:31:12.509Z,100253.53
2022-12-22T22:33:39.870Z,100248.66
2022-12-22T22:36:08.359Z,100255.72
2022-12-22T22:38:36.032Z,100258.06
2022-12-22T22:41:03.440Z,100261.13
2022-12-22T22:43:30.780Z,100268.97
2022-12-22T22:45:58.184Z,100268.06
2022-12-22T22:48:25.542Z,100278.75
2022-12-22T22:50:52.961Z,100279.66
2022-12-22T22:53:20.496Z,100285.03
2022-12-22T22:55:47.987Z,100285.41
2022-12-22T22:58:15.275Z,100285.63
2022-12-22T23:00:42.488Z,100280.06
2022-12-22T23:03:10.013Z,100277.97
2022-12-22T23:05:37.340Z,100273.00
2022-12-22T23:08:04.864Z,100283.28
2022-12-22T23:10:37.719Z,100285.91
2022-12-22T23:13:08.485Z,100293.28
2022-12-22T23:15:35.774Z,100289.41
2022-12-22T23:18:03.229Z,100293.84
2022-12-22T23:20:30.580Z,100280.44
2022-12-22T23:22:57.855Z,100292.22
2022-12-22T23:25:25.177Z,100296.59
2022-12-22T23:27:52.637Z,100294.72
2022-12-22T23:30:19.949Z,100281.63
2022-12-22T23:32:47.476Z,100283.03
2022-12-22T23:35:14.820Z,100284.00
2022-12-22T23:37:42.172Z,100282.47
2022-12-22T23:40:50.953Z,100291.72
2022-12-22T23:42:57.401Z,100291.94
2022-12-22T23:45:24.821Z,100289.00
2022-12-22T23:47:52.180Z,100291.00
2022-12-22T23:50:19.493Z,100303.66
2022-12-22T23:52:49.645Z,100295.91
2022-12-22T23:55:19.494Z,100297.84
2022-12-22T23:57:47.032Z,100307.41
